sensor_id;sensor_type;location;lat;lon;timestamp;P1;durP1;ratioP1;P2;durP2;ratioP2
34433;SDS011;34290;48.562;13.384;2022-11-20T00:01:28;52.53;;;18.17;;
34433;SDS011;34290;48.562;13.384;2022-11-20T00:03:56;56.40;;;18.07;;
34433;SDS011;34290;48.562;13.384;2022-11-20T00:06:24;50.87;;;19.03;;
34433;SDS011;34290;48.562;13.384;2022-11-20T00:08:55;53.67;;;18.97;;
34433;SDS011;34290;48.562;13.384;2022-11-20T00:11:25;53.13;;;18.57;;
34433;SDS011;34290;48.562;13.384;2022-11-20T00:13:54;56.43;;;19.67;;
34433;SDS011;34290;48.562;13.384;2022-11-20T00:16:23;53.50;;;18.87;;
34433;SDS011;34290;48.562;13.384;2022-11-20T00:18:52;50.10;;;18.63;;
34433;SDS011;34290;48.562;13.384;2022-11-20T00:21:20;52.17;;;19.07;;
34433;SDS011;34290;48.562;13.384;2022-11-20T00:23:49;55.97;;;20.13;;
34433;SDS011;34290;48.562;13.384;2022-11-20T00:26:21;58.90;;;19.23;;
34433;SDS011;34290;48.562;13.384;2022-11-20T00:28:49;54.90;;;20.63;;
34433;SDS011;34290;48.562;13.384;2022-11-20T00:31:17;60.40;;;19.80;;
34433;SDS011;34290;48.562;13.384;2022-11-20T00:33:44;53.80;;;18.93;;
34433;SDS011;34290;48.562;13.384;2022-11-20T00:36:12;52.50;;;18.73;;
34433;SDS011;34290;48.562;13.384;2022-11-20T00:38:41;54.93;;;19.57;;
34433;SDS011;34290;48.562;13.384;2022-11-20T00:41:10;55.83;;;18.73;;
34433;SDS011;34290;48.562;13.384;2022-11-20T00:43:40;58.03;;;19.57;;
34433;SDS011;34290;48.562;13.384;2022-11-20T00:46:08;52.87;;;18.90;;
34433;SDS011;34290;48.562;13.384;2022-11-20T00:48:38;50.93;;;19.50;;
34433;SDS011;34290;48.562;13.384;2022-11-20T00:51:05;53.03;;;19.20;;
34433;SDS011;34290;48.562;13.384;2022-11-20T00:53:32;53.93;;;19.50;;
34433;SDS011;34290;48.562;13.384;2022-11-20T00:56:00;62.07;;;20.20;;
34433;SDS011;34290;48.562;13.384;2022-11-20T00:58:32;54.47;;;19.80;;
34433;SDS011;34290;48.562;13.384;2022-11-20T01:01:02;57.57;;;19.13;;
34433;SDS011;34290;48.562;13.384;2022-11-20T01:03:30;55.30;;;19.17;;
34433;SDS011;34290;48.562;13.384;2022-11-20T01:06:01;59.03;;;20.50;;
34433;SDS011;34290;48.562;13.384;2022-11-20T01:08:29;58.70;;;19.87;;
34433;SDS011;34290;48.562;13.384;2022-11-20T01:11:00;62.77;;;20.63;;
34433;SDS011;34290;48.562;13.384;2022-11-20T01:13:28;56.27;;;20.80;;
34433;SDS011;34290;48.562;13.384;2022-11-20T01:16:08;54.03;;;20.53;;
34433;SDS011;34290;48.562;13.384;2022-11-20T01:18:37;56.17;;;19.20;;
34433;SDS011;34290;48.562;13.384;2022-11-20T01:21:08;58.23;;;19.57;;
34433;SDS011;34290;48.562;13.384;2022-11-20T01:23:37;57.83;;;20.40;;
34433;SDS011;34290;48.562;13.384;2022-11-20T01:26:06;60.13;;;20.07;;
34433;SDS011;34290;48.562;13.384;2022-11-20T01:28:35;61.93;;;20.97;;
34433;SDS011;34290;48.562;13.384;2022-11-20T01:31:11;58.80;;;19.83;;
34433;SDS011;34290;48.562;13.384;2022-11-20T01:33:39;55.23;;;20.20;;
34433;SDS011;34290;48.562;13.384;2022-11-20T01:36:08;54.93;;;19.47;;
34433;SDS011;34290;48.562;13.384;2022-11-20T01:38:36;57.03;;;20.27;;
34433;SDS011;34290;48.562;13.384;2022-11-20T01:41:03;55.07;;;20.63;;
34433;SDS011;34290;48.562;13.384;2022-11-20T01:43:31;51.80;;;19.40;;
34433;SDS011;34290;48.562;13.384;2022-11-20T01:45:59;51.43;;;18.57;;
34433;SDS011;34290;48.562;13.384;2022-11-20T01:48:30;51.60;;;18.80;;
34433;SDS011;34290;48.562;13.384;2022-11-20T01:51:03;52.30;;;19.07;;
34433;SDS011;34290;48.562;13.384;2022-11-20T01:53:33;52.03;;;18.20;;
34433;SDS011;34290;48.562;13.384;2022-11-20T01:56:03;52.87;;;19.47;;
34433;SDS011;34290;48.562;13.384;2022-11-20T01:58:35;56.73;;;19.73;;
34433;SDS011;34290;48.562;13.384;2022-11-20T02:01:12;52.50;;;18.53;;
34433;SDS011;34290;48.562;13.384;2022-11-20T02:03:41;50.47;;;17.90;;
34433;SDS011;34290;48.562;13.384;2022-11-20T02:06:11;49.30;;;18.33;;
34433;SDS011;34290;48.562;13.384;2022-11-20T02:08:42;50.93;;;19.10;;
34433;SDS011;34290;48.562;13.384;2022-11-20T02:11:09;54.23;;;19.57;;
34433;SDS011;34290;48.562;13.384;2022-11-20T02:13:37;51.67;;;19.10;;
34433;SDS011;34290;48.562;13.384;2022-11-20T02:16:10;47.20;;;17.80;;
34433;SDS011;34290;48.562;13.384;2022-11-20T02:18:39;48.50;;;17.43;;
34433;SDS011;34290;48.562;13.384;2022-11-20T02:21:09;43.63;;;16.83;;
34433;SDS011;34290;48.562;13.384;2022-11-20T02:23:52;47.47;;;18.10;;
34433;SDS011;34290;48.562;13.384;2022-11-20T02:26:26;47.03;;;18.03;;
34433;SDS011;34290;48.562;13.384;2022-11-20T02:28:55;51.57;;;17.33;;
34433;SDS011;34290;48.562;13.384;2022-11-20T02:31:22;46.20;;;17.33;;
34433;SDS011;34290;48.562;13.384;2022-11-20T02:33:53;44.63;;;17.77;;
34433;SDS011;34290;48.562;13.384;2022-11-20T02:36:21;45.97;;;17.43;;
34433;SDS011;34290;48.562;13.384;2022-11-20T02:38:51;43.53;;;16.80;;
34433;SDS011;34290;48.562;13.384;2022-11-20T02:41:19;45.73;;;17.27;;
34433;SDS011;34290;48.562;13.384;2022-11-20T02:43:47;50.93;;;18.03;;
34433;SDS011;34290;48.562;13.384;2022-11-20T02:46:14;43.73;;;17.17;;
34433;SDS011;34290;48.562;13.384;2022-11-20T02:48:41;53.23;;;18.33;;
34433;SDS011;34290;48.562;13.384;2022-11-20T02:51:08;41.80;;;16.43;;
34433;SDS011;34290;48.562;13.384;2022-11-20T02:53:37;49.10;;;18.07;;
34433;SDS011;34290;48.562;13.384;2022-11-20T02:56:04;46.30;;;17.17;;
34433;SDS011;34290;48.562;13.384;2022-11-20T02:58:34;47.80;;;17.97;;
34433;SDS011;34290;48.562;13.384;2022-11-20T03:01:01;46.33;;;16.13;;
34433;SDS011;34290;48.562;13.384;2022-11-20T03:03:28;46.30;;;17.40;;
34433;SDS011;34290;48.562;13.384;2022-11-20T03:05:55;46.70;;;17.67;;
34433;SDS011;34290;48.562;13.384;2022-11-20T03:08:24;45.80;;;17.07;;
34433;SDS011;34290;48.562;13.384;2022-11-20T03:10:51;51.83;;;18.10;;
34433;SDS011;34290;48.562;13.384;2022-11-20T03:13:18;38.43;;;15.67;;
34433;SDS011;34290;48.562;13.384;2022-11-20T03:15:47;50.50;;;18.27;;
34433;SDS011;34290;48.562;13.384;2022-11-20T03:18:16;46.20;;;16.97;;
34433;SDS011;34290;48.562;13.384;2022-11-20T03:20:43;49.90;;;17.97;;
34433;SDS011;34290;48.562;13.384;2022-11-20T03:23:10;51.30;;;18.80;;
34433;SDS011;34290;48.562;13.384;2022-11-20T03:25:37;46.63;;;17.30;;
34433;SDS011;34290;48.562;13.384;2022-11-20T03:28:04;49.93;;;18.60;;
34433;SDS011;34290;48.562;13.384;2022-11-20T03:30:31;47.83;;;18.47;;
34433;SDS011;34290;48.562;13.384;2022-11-20T03:33:00;48.50;;;17.20;;
34433;SDS011;34290;48.562;13.384;2022-11-20T03:35:27;43.03;;;16.97;;
34433;SDS011;34290;48.562;13.384;2022-11-20T03:37:57;46.60;;;16.83;;
34433;SDS011;34290;48.562;13.384;2022-11-20T03:40:23;44.20;;;16.53;;
34433;SDS011;34290;48.562;13.384;2022-11-20T03:42:50;42.70;;;16.93;;
34433;SDS011;34290;48.562;13.384;2022-11-20T03:45:18;44.37;;;16.83;;
34433;SDS011;34290;48.562;13.384;2022-11-20T03:47:45;45.80;;;16.57;;
34433;SDS011;34290;48.562;13.384;2022-11-20T03:50:17;43.27;;;16.43;;
34433;SDS011;34290;48.562;13.384;2022-11-20T03:52:44;40.73;;;15.87;;
34433;SDS011;34290;48.562;13.384;2022-11-20T03:55:11;44.63;;;16.77;;
34433;SDS011;34290;48.562;13.384;2022-11-20T03:57:41;45.60;;;16.33;;
34433;SDS011;34290;48.562;13.384;2022-11-20T04:00:10;41.30;;;15.70;;
34433;SDS011;34290;48.562;13.384;2022-11-20T04:02:39;40.00;;;16.23;;
34433;SDS011;34290;48.562;13.384;2022-11-20T04:05:06;45.20;;;17.27;;
34433;SDS011;34290;48.562;13.384;2022-11-20T04:07:35;42.37;;;15.97;;
34433;SDS011;34290;48.562;13.384;2022-11-20T04:10:02;45.07;;;16.63;;
34433;SDS011;34290;48.562;13.384;2022-11-20T04:12:31;41.57;;;15.60;;
34433;SDS011;34290;48.562;13.384;2022-11-20T04:14:59;45.23;;;17.03;;
34433;SDS011;34290;48.562;13.384;2022-11-20T04:17:26;46.23;;;16.47;;
34433;SDS011;34290;48.562;13.384;2022-11-20T04:19:53;46.10;;;16.23;;
34433;SDS011;34290;48.562;13.384;2022-11-20T04:22:20;45.67;;;15.80;;
34433;SDS011;34290;48.562;13.384;2022-11-20T04:24:49;42.80;;;15.77;;
34433;SDS011;34290;48.562;13.384;2022-11-20T04:27:16;44.87;;;15.87;;
34433;SDS011;34290;48.562;13.384;2022-11-20T04:29:43;42.50;;;15.63;;
34433;SDS011;34290;48.562;13.384;2022-11-20T04:32:10;43.37;;;15.33;;
34433;SDS011;34290;48.562;13.384;2022-11-20T04:34:39;44.43;;;15.73;;
34433;SDS011;34290;48.562;13.384;2022-11-20T04:37:06;42.13;;;15.90;;
34433;SDS011;34290;48.562;13.384;2022-11-20T04:39:37;38.57;;;14.73;;
34433;SDS011;34290;48.562;13.384;2022-11-20T04:42:05;45.80;;;16.20;;
34433;SDS011;34290;48.562;13.384;2022-11-20T04:44:51;41.80;;;16.17;;
34433;SDS011;34290;48.562;13.384;2022-11-20T04:47:18;43.33;;;16.20;;
34433;SDS011;34290;48.562;13.384;2022-11-20T04:49:45;48.23;;;17.03;;
34433;SDS011;34290;48.562;13.384;2022-11-20T04:52:13;51.13;;;17.97;;
34433;SDS011;34290;48.562;13.384;2022-11-20T04:54:40;51.23;;;17.43;;
34433;SDS011;34290;48.562;13.384;2022-11-20T04:57:08;48.63;;;16.63;;
34433;SDS011;34290;48.562;13.384;2022-11-20T04:59:35;45.23;;;17.80;;
34433;SDS011;34290;48.562;13.384;2022-11-20T05:02:02;46.40;;;16.77;;
34433;SDS011;34290;48.562;13.384;2022-11-20T05:04:29;48.93;;;16.77;;
34433;SDS011;34290;48.562;13.384;2022-11-20T05:06:56;49.83;;;17.63;;
34433;SDS011;34290;48.562;13.384;2022-11-20T05:09:23;46.83;;;16.47;;
34433;SDS011;34290;48.562;13.384;2022-11-20T05:11:51;46.03;;;16.90;;
34433;SDS011;34290;48.562;13.384;2022-11-20T05:14:19;51.00;;;16.27;;
34433;SDS011;34290;48.562;13.384;2022-11-20T05:16:46;48.77;;;16.80;;
34433;SDS011;34290;48.562;13.384;2022-11-20T05:19:14;44.97;;;17.47;;
34433;SDS011;34290;48.562;13.384;2022-11-20T05:21:43;44.10;;;16.07;;
34433;SDS011;34290;48.562;13.384;2022-11-20T05:24:10;45.73;;;16.70;;
34433;SDS011;34290;48.562;13.384;2022-11-20T05:26:37;46.70;;;16.90;;
34433;SDS011;34290;48.562;13.384;2022-11-20T05:29:04;46.77;;;17.00;;
34433;SDS011;34290;48.562;13.384;2022-11-20T05:31:33;52.80;;;18.03;;
34433;SDS011;34290;48.562;13.384;2022-11-20T05:34:01;50.47;;;17.40;;
34433;SDS011;34290;48.562;13.384;2022-11-20T05:36:28;48.90;;;16.40;;
34433;SDS011;34290;48.562;13.384;2022-11-20T05:38:56;54.80;;;18.67;;
34433;SDS011;34290;48.562;13.384;2022-11-20T05:41:23;53.87;;;18.47;;
34433;SDS011;34290;48.562;13.384;2022-11-20T05:43:51;51.87;;;18.67;;
34433;SDS011;34290;48.562;13.384;2022-11-20T05:46:18;46.80;;;17.53;;
34433;SDS011;34290;48.562;13.384;2022-11-20T05:48:48;47.27;;;16.50;;
34433;SDS011;34290;48.562;13.384;2022-11-20T05:51:15;53.37;;;17.53;;
34433;SDS011;34290;48.562;13.384;2022-11-20T05:53:44;55.50;;;17.97;;
34433;SDS011;34290;48.562;13.384;2022-11-20T05:56:12;48.10;;;17.00;;
34433;SDS011;34290;48.562;13.384;2022-11-20T05:58:40;46.70;;;16.97;;
34433;SDS011;34290;48.562;13.384;2022-11-20T06:01:09;49.43;;;17.70;;
34433;SDS011;34290;48.562;13.384;2022-11-20T06:03:37;48.83;;;17.97;;
34433;SDS011;34290;48.562;13.384;2022-11-20T06:06:06;48.00;;;18.10;;
34433;SDS011;34290;48.562;13.384;2022-11-20T06:08:34;52.80;;;17.60;;
34433;SDS011;34290;48.562;13.384;2022-11-20T06:11:04;51.73;;;18.67;;
34433;SDS011;34290;48.562;13.384;2022-11-20T06:13:31;49.40;;;17.63;;
34433;SDS011;34290;48.562;13.384;2022-11-20T06:16:00;49.17;;;17.73;;
34433;SDS011;34290;48.562;13.384;2022-11-20T06:18:28;54.47;;;19.30;;
34433;SDS011;34290;48.562;13.384;2022-11-20T06:20:59;46.17;;;18.33;;
34433;SDS011;34290;48.562;13.384;2022-11-20T06:23:29;49.87;;;17.57;;
34433;SDS011;34290;48.562;13.384;2022-11-20T06:25:56;43.60;;;17.07;;
34433;SDS011;34290;48.562;13.384;2022-11-20T06:28:24;55.30;;;18.33;;
34433;SDS011;34290;48.562;13.384;2022-11-20T06:30:51;50.60;;;18.23;;
34433;SDS011;34290;48.562;13.384;2022-11-20T06:33:18;51.57;;;18.40;;
34433;SDS011;34290;48.562;13.384;2022-11-20T06:35:45;55.70;;;18.23;;
34433;SDS011;34290;48.562;13.384;2022-11-20T06:38:12;52.00;;;18.80;;
34433;SDS011;34290;48.562;13.384;2022-11-20T06:40:41;56.47;;;19.03;;
34433;SDS011;34290;48.562;13.384;2022-11-20T06:43:08;53.03;;;18.07;;
34433;SDS011;34290;48.562;13.384;2022-11-20T06:45:36;54.97;;;17.80;;
34433;SDS011;34290;48.562;13.384;2022-11-20T06:48:04;61.53;;;18.67;;
34433;SDS011;34290;48.562;13.384;2022-11-20T06:50:31;51.07;;;17.50;;
34433;SDS011;34290;48.562;13.384;2022-11-20T06:53:00;52.00;;;17.67;;
34433;SDS011;34290;48.562;13.384;2022-11-20T06:55:28;52.67;;;18.70;;
34433;SDS011;34290;48.562;13.384;2022-11-20T06:57:57;53.13;;;19.37;;
34433;SDS011;34290;48.562;13.384;2022-11-20T07:00:24;51.37;;;18.10;;
34433;SDS011;34290;48.562;13.384;2022-11-20T07:02:51;56.53;;;18.40;;
34433;SDS011;34290;48.562;13.384;2022-11-20T07:05:20;53.67;;;18.03;;
34433;SDS011;34290;48.562;13.384;2022-11-20T07:07:47;54.60;;;18.23;;
34433;SDS011;34290;48.562;13.384;2022-11-20T07:10:14;52.47;;;17.70;;
34433;SDS011;34290;48.562;13.384;2022-11-20T07:12:42;50.90;;;19.10;;
34433;SDS011;34290;48.562;13.384;2022-11-20T07:15:10;52.10;;;18.30;;
34433;SDS011;34290;48.562;13.384;2022-11-20T07:17:37;48.03;;;18.30;;
34433;SDS011;34290;48.562;13.384;2022-11-20T07:20:04;54.43;;;17.77;;
34433;SDS011;34290;48.562;13.384;2022-11-20T07:22:32;52.03;;;17.63;;
34433;SDS011;34290;48.562;13.384;2022-11-20T07:24:59;48.77;;;16.93;;
34433;SDS011;34290;48.562;13.384;2022-11-20T07:27:29;47.43;;;17.53;;
34433;SDS011;34290;48.562;13.384;2022-11-20T07:29:57;43.83;;;15.97;;
34433;SDS011;34290;48.562;13.384;2022-11-20T07:32:25;42.60;;;15.00;;
34433;SDS011;34290;48.562;13.384;2022-11-20T07:34:52;45.83;;;16.27;;
34433;SDS011;34290;48.562;13.384;2022-11-20T07:37:20;44.30;;;16.00;;
34433;SDS011;34290;48.562;13.384;2022-11-20T07:39:47;45.33;;;15.43;;
34433;SDS011;34290;48.562;13.384;2022-11-20T07:42:14;43.37;;;15.00;;
34433;SDS011;34290;48.562;13.384;2022-11-20T07:44:41;45.77;;;16.03;;
34433;SDS011;34290;48.562;13.384;2022-11-20T07:47:08;38.60;;;14.40;;
34433;SDS011;34290;48.562;13.384;2022-11-20T07:49:37;40.33;;;14.37;;
34433;SDS011;34290;48.562;13.384;2022-11-20T07:52:04;69.37;;;15.63;;
34433;SDS011;34290;48.562;13.384;2022-11-20T07:54:31;82.50;;;17.20;;
34433;SDS011;34290;48.562;13.384;2022-11-20T07:56:58;46.90;;;14.60;;
34433;SDS011;34290;48.562;13.384;2022-11-20T07:59:25;36.00;;;13.37;;
34433;SDS011;34290;48.562;13.384;2022-11-20T08:01:52;30.97;;;12.47;;
34433;SDS011;34290;48.562;13.384;2022-11-20T08:04:19;37.20;;;13.97;;
34433;SDS011;34290;48.562;13.384;2022-11-20T08:06:48;39.33;;;13.73;;
34433;SDS011;34290;48.562;13.384;2022-11-20T08:09:15;33.87;;;13.23;;
34433;SDS011;34290;48.562;13.384;2022-11-20T08:11:42;35.57;;;13.47;;
34433;SDS011;34290;48.562;13.384;2022-11-20T08:14:26;36.10;;;13.03;;
34433;SDS011;34290;48.562;13.384;2022-11-20T08:16:53;39.03;;;13.53;;
34433;SDS011;34290;48.562;13.384;2022-11-20T08:19:20;36.40;;;12.97;;
34433;SDS011;34290;48.562;13.384;2022-11-20T08:21:48;38.87;;;15.30;;
34433;SDS011;34290;48.562;13.384;2022-11-20T08:24:18;38.37;;;13.90;;
34433;SDS011;34290;48.562;13.384;2022-11-20T08:26:45;40.23;;;13.93;;
34433;SDS011;34290;48.562;13.384;2022-11-20T08:29:12;38.53;;;14.20;;
34433;SDS011;34290;48.562;13.384;2022-11-20T08:31:39;36.17;;;13.60;;
34433;SDS011;34290;48.562;13.384;2022-11-20T08:34:06;37.57;;;13.57;;
34433;SDS011;34290;48.562;13.384;2022-11-20T08:36:33;32.40;;;12.77;;
34433;SDS011;34290;48.562;13.384;2022-11-20T08:39:02;31.13;;;13.07;;
34433;SDS011;34290;48.562;13.384;2022-11-20T08:41:29;37.63;;;13.90;;
34433;SDS011;34290;48.562;13.384;2022-11-20T08:43:58;36.07;;;13.23;;
34433;SDS011;34290;48.562;13.384;2022-11-20T08:46:27;34.10;;;14.10;;
34433;SDS011;34290;48.562;13.384;2022-11-20T08:48:59;32.30;;;12.70;;
34433;SDS011;34290;48.562;13.384;2022-11-20T08:51:26;31.93;;;12.87;;
34433;SDS011;34290;48.562;13.384;2022-11-20T08:53:53;34.70;;;13.03;;
34433;SDS011;34290;48.562;13.384;2022-11-20T08:56:22;29.90;;;12.40;;
34433;SDS011;34290;48.562;13.384;2022-11-20T08:58:49;31.73;;;12.87;;
34433;SDS011;34290;48.562;13.384;2022-11-20T09:01:17;31.20;;;12.47;;
34433;SDS011;34290;48.562;13.384;2022-11-20T09:03:45;36.43;;;13.93;;
34433;SDS011;34290;48.562;13.384;2022-11-20T09:06:12;36.20;;;13.80;;
34433;SDS011;34290;48.562;13.384;2022-11-20T09:08:39;39.33;;;14.80;;
34433;SDS011;34290;48.562;13.384;2022-11-20T09:11:07;35.70;;;14.23;;
34433;SDS011;34290;48.562;13.384;2022-11-20T09:13:35;34.70;;;13.47;;
34433;SDS011;34290;48.562;13.384;2022-11-20T09:16:04;37.27;;;14.00;;
34433;SDS011;34290;48.562;13.384;2022-11-20T09:18:32;43.37;;;14.17;;
34433;SDS011;34290;48.562;13.384;2022-11-20T09:21:02;40.47;;;16.63;;
34433;SDS011;34290;48.562;13.384;2022-11-20T09:23:31;36.27;;;14.23;;
34433;SDS011;34290;48.562;13.384;2022-11-20T09:26:01;36.13;;;14.47;;
34433;SDS011;34290;48.562;13.384;2022-11-20T09:28:29;36.53;;;14.80;;
34433;SDS011;34290;48.562;13.384;2022-11-20T09:30:59;34.37;;;13.10;;
34433;SDS011;34290;48.562;13.384;2022-11-20T09:33:26;36.77;;;14.43;;
34433;SDS011;34290;48.562;13.384;2022-11-20T09:35:53;42.03;;;16.50;;
34433;SDS011;34290;48.562;13.384;2022-11-20T09:38:20;35.60;;;14.23;;
34433;SDS011;34290;48.562;13.384;2022-11-20T09:40:50;34.50;;;14.77;;
34433;SDS011;34290;48.562;13.384;2022-11-20T09:43:22;35.57;;;14.73;;
34433;SDS011;34290;48.562;13.384;2022-11-20T09:46:01;32.10;;;14.07;;
34433;SDS011;34290;48.562;13.384;2022-11-20T09:48:42;37.80;;;14.37;;
34433;SDS011;34290;48.562;13.384;2022-11-20T09:51:21;37.83;;;14.43;;
34433;SDS011;34290;48.562;13.384;2022-11-20T09:54:00;33.47;;;13.70;;
34433;SDS011;34290;48.562;13.384;2022-11-20T09:56:40;30.37;;;13.73;;
34433;SDS011;34290;48.562;13.384;2022-11-20T09:59:14;41.27;;;15.83;;
34433;SDS011;34290;48.562;13.384;2022-11-20T10:01:54;35.00;;;15.00;;
34433;SDS011;34290;48.562;13.384;2022-11-20T10:04:22;39.20;;;15.53;;
34433;SDS011;34290;48.562;13.384;2022-11-20T10:06:50;34.33;;;14.47;;
34433;SDS011;34290;48.562;13.384;2022-11-20T10:09:27;44.53;;;15.13;;
34433;SDS011;34290;48.562;13.384;2022-11-20T10:12:02;41.30;;;15.87;;
34433;SDS011;34290;48.562;13.384;2022-11-20T10:14:41;36.97;;;15.23;;
34433;SDS011;34290;48.562;13.384;2022-11-20T10:17:27;38.57;;;15.27;;
34433;SDS011;34290;48.562;13.384;2022-11-20T10:20:09;38.80;;;15.43;;
34433;SDS011;34290;48.562;13.384;2022-11-20T10:22:46;35.63;;;14.23;;
34433;SDS011;34290;48.562;13.384;2022-11-20T10:25:28;40.23;;;16.20;;
34433;SDS011;34290;48.562;13.384;2022-11-20T10:28:07;38.80;;;15.70;;
34433;SDS011;34290;48.562;13.384;2022-11-20T10:30:37;39.00;;;15.83;;
34433;SDS011;34290;48.562;13.384;2022-11-20T10:33:11;36.17;;;13.93;;
34433;SDS011;34290;48.562;13.384;2022-11-20T10:35:43;39.13;;;15.40;;
34433;SDS011;34290;48.562;13.384;2022-11-20T10:38:14;40.83;;;16.17;;
34433;SDS011;34290;48.562;13.384;2022-11-20T10:40:48;34.57;;;14.50;;
34433;SDS011;34290;48.562;13.384;2022-11-20T10:43:19;36.30;;;15.27;;
34433;SDS011;34290;48.562;13.384;2022-11-20T10:45:51;36.80;;;15.03;;
34433;SDS011;34290;48.562;13.384;2022-11-20T10:48:26;33.93;;;14.73;;
34433;SDS011;34290;48.562;13.384;2022-11-20T10:50:59;32.43;;;13.47;;
34433;SDS011;34290;48.562;13.384;2022-11-20T10:53:46;20.47;;;9.03;;
34433;SDS011;34290;48.562;13.384;2022-11-20T10:56:20;19.30;;;8.83;;
34433;SDS011;34290;48.562;13.384;2022-11-20T10:59:00;14.60;;;7.17;;
34433;SDS011;34290;48.562;13.384;2022-11-20T11:01:41;14.87;;;7.13;;
34433;SDS011;34290;48.562;13.384;2022-11-20T11:04:15;11.77;;;6.27;;
34433;SDS011;34290;48.562;13.384;2022-11-20T11:07:07;10.00;;;5.30;;
34433;SDS011;34290;48.562;13.384;2022-11-20T11:09:38;10.10;;;5.37;;
34433;SDS011;34290;48.562;13.384;2022-11-20T11:12:08;11.40;;;4.83;;
34433;SDS011;34290;48.562;13.384;2022-11-20T11:14:43;8.60;;;5.10;;
34433;SDS011;34290;48.562;13.384;2022-11-20T11:17:18;8.43;;;5.00;;
34433;SDS011;34290;48.562;13.384;2022-11-20T11:20:03;9.17;;;5.10;;
34433;SDS011;34290;48.562;13.384;2022-11-20T11:22:45;8.43;;;4.63;;
34433;SDS011;34290;48.562;13.384;2022-11-20T11:25:24;8.83;;;4.70;;
34433;SDS011;34290;48.562;13.384;2022-11-20T11:27:54;9.30;;;4.17;;
34433;SDS011;34290;48.562;13.384;2022-11-20T11:30:22;9.97;;;4.53;;
34433;SDS011;34290;48.562;13.384;2022-11-20T11:32:50;10.73;;;5.23;;
34433;SDS011;34290;48.562;13.384;2022-11-20T11:35:30;15.60;;;7.30;;
34433;SDS011;34290;48.562;13.384;2022-11-20T11:38:02;11.47;;;6.17;;
34433;SDS011;34290;48.562;13.384;2022-11-20T11:40:32;11.83;;;6.40;;
34433;SDS011;34290;48.562;13.384;2022-11-20T11:43:04;26.67;;;11.43;;
34433;SDS011;34290;48.562;13.384;2022-11-20T11:45:53;29.60;;;12.87;;
34433;SDS011;34290;48.562;13.384;2022-11-20T11:48:20;42.33;;;19.73;;
34433;SDS011;34290;48.562;13.384;2022-11-20T11:50:49;185.60;;;70.93;;
34433;SDS011;34290;48.562;13.384;2022-11-20T11:53:17;40.33;;;14.17;;
34433;SDS011;34290;48.562;13.384;2022-11-20T11:55:46;19.23;;;9.63;;
34433;SDS011;34290;48.562;13.384;2022-11-20T11:58:32;22.17;;;11.03;;
34433;SDS011;34290;48.562;13.384;2022-11-20T12:01:08;24.40;;;11.30;;
34433;SDS011;34290;48.562;13.384;2022-11-20T12:03:51;42.03;;;23.47;;
34433;SDS011;34290;48.562;13.384;2022-11-20T12:06:23;15.13;;;7.40;;
34433;SDS011;34290;48.562;13.384;2022-11-20T12:08:55;9.93;;;5.60;;
34433;SDS011;34290;48.562;13.384;2022-11-20T12:11:29;8.73;;;4.20;;
34433;SDS011;34290;48.562;13.384;2022-11-20T12:14:01;7.63;;;5.10;;
34433;SDS011;34290;48.562;13.384;2022-11-20T12:16:36;8.07;;;4.80;;
34433;SDS011;34290;48.562;13.384;2022-11-20T12:19:07;6.43;;;3.90;;
34433;SDS011;34290;48.562;13.384;2022-11-20T12:21:40;8.40;;;4.73;;
34433;SDS011;34290;48.562;13.384;2022-11-20T12:27:16;5.03;;;3.20;;
34433;SDS011;34290;48.562;13.384;2022-11-20T12:30:03;8.57;;;3.83;;
34433;SDS011;34290;48.562;13.384;2022-11-20T12:32:39;6.20;;;3.77;;
34433;SDS011;34290;48.562;13.384;2022-11-20T12:35:28;7.93;;;4.70;;
34433;SDS011;34290;48.562;13.384;2022-11-20T12:38:07;6.77;;;4.23;;
34433;SDS011;34290;48.562;13.384;2022-11-20T12:40:54;7.87;;;3.70;;
34433;SDS011;34290;48.562;13.384;2022-11-20T12:43:29;4.97;;;3.57;;
34433;SDS011;34290;48.562;13.384;2022-11-20T12:46:22;5.23;;;3.70;;
34433;SDS011;34290;48.562;13.384;2022-11-20T12:49:04;8.73;;;4.83;;
34433;SDS011;34290;48.562;13.384;2022-11-20T12:51:56;8.03;;;4.87;;
34433;SDS011;34290;48.562;13.384;2022-11-20T12:57:28;5.83;;;3.60;;
34433;SDS011;34290;48.562;13.384;2022-11-20T13:00:08;9.40;;;3.33;;
34433;SDS011;34290;48.562;13.384;2022-11-20T13:02:44;6.27;;;3.50;;
34433;SDS011;34290;48.562;13.384;2022-11-20T13:05:27;7.73;;;4.30;;
34433;SDS011;34290;48.562;13.384;2022-11-20T13:08:00;6.90;;;3.50;;
34433;SDS011;34290;48.562;13.384;2022-11-20T13:10:33;5.20;;;3.40;;
34433;SDS011;34290;48.562;13.384;2022-11-20T13:13:08;4.70;;;3.10;;
34433;SDS011;34290;48.562;13.384;2022-11-20T13:15:47;5.80;;;3.40;;
34433;SDS011;34290;48.562;13.384;2022-11-20T13:18:20;7.13;;;3.17;;
34433;SDS011;34290;48.562;13.384;2022-11-20T13:20:47;8.03;;;4.03;;
34433;SDS011;34290;48.562;13.384;2022-11-20T13:23:22;7.70;;;4.77;;
34433;SDS011;34290;48.562;13.384;2022-11-20T13:26:01;5.37;;;3.43;;
34433;SDS011;34290;48.562;13.384;2022-11-20T13:28:30;10.13;;;3.77;;
34433;SDS011;34290;48.562;13.384;2022-11-20T13:30:57;5.27;;;3.80;;
34433;SDS011;34290;48.562;13.384;2022-11-20T13:33:29;10.83;;;6.30;;
34433;SDS011;34290;48.562;13.384;2022-11-20T13:35:58;6.40;;;4.03;;
34433;SDS011;34290;48.562;13.384;2022-11-20T13:38:27;8.70;;;5.63;;
34433;SDS011;34290;48.562;13.384;2022-11-20T13:40:56;10.37;;;6.80;;
34433;SDS011;34290;48.562;13.384;2022-11-20T13:43:28;10.23;;;5.87;;
34433;SDS011;34290;48.562;13.384;2022-11-20T13:46:02;8.17;;;5.63;;
34433;SDS011;34290;48.562;13.384;2022-11-20T13:48:31;6.80;;;4.40;;
34433;SDS011;34290;48.562;13.384;2022-11-20T13:51:12;10.27;;;5.93;;
34433;SDS011;34290;48.562;13.384;2022-11-20T13:54:03;6.77;;;4.17;;
34433;SDS011;34290;48.562;13.384;2022-11-20T13:56:53;7.87;;;5.20;;
34433;SDS011;34290;48.562;13.384;2022-11-20T13:59:40;8.37;;;4.40;;
34433;SDS011;34290;48.562;13.384;2022-11-20T14:02:16;7.80;;;4.83;;
34433;SDS011;34290;48.562;13.384;2022-11-20T14:04:46;7.17;;;4.50;;
34433;SDS011;34290;48.562;13.384;2022-11-20T14:07:15;7.47;;;4.20;;
34433;SDS011;34290;48.562;13.384;2022-11-20T14:09:49;6.83;;;4.20;;
34433;SDS011;34290;48.562;13.384;2022-11-20T14:12:19;6.30;;;3.83;;
34433;SDS011;34290;48.562;13.384;2022-11-20T14:14:48;6.60;;;3.23;;
34433;SDS011;34290;48.562;13.384;2022-11-20T14:17:18;6.17;;;3.70;;
34433;SDS011;34290;48.562;13.384;2022-11-20T14:19:47;7.17;;;4.03;;
34433;SDS011;34290;48.562;13.384;2022-11-20T14:22:17;7.20;;;3.33;;
34433;SDS011;34290;48.562;13.384;2022-11-20T14:24:45;12.00;;;3.57;;
34433;SDS011;34290;48.562;13.384;2022-11-20T14:27:13;7.30;;;3.50;;
34433;SDS011;34290;48.562;13.384;2022-11-20T14:29:43;8.87;;;4.90;;
34433;SDS011;34290;48.562;13.384;2022-11-20T14:32:12;5.23;;;3.30;;
34433;SDS011;34290;48.562;13.384;2022-11-20T14:34:43;5.47;;;3.20;;
34433;SDS011;34290;48.562;13.384;2022-11-20T14:37:12;6.00;;;3.50;;
34433;SDS011;34290;48.562;13.384;2022-11-20T14:39:48;4.77;;;3.10;;